MSVA4: Spavinaw Creek nr Maysville AR

Data processed at Thu May 23 2019 23:50


All information presented herein is the property of the government of the United States of America and may be revised or deleted at any time without prior notice.
Dissemination of this information without the expressed written consent of the Public Affairs Office, Tulsa District U.S. Army Corps of Engineers is strictly prohibited.
These data are gathered electronically and, as presented, have not undergone any form of quality control. These data are not guaranteed to be valid or correct.
Go to home page.
Go to station list.
Go to home page.

Downstream station:


Previous Day
Next Day
Current Day
    
SHEF ID:       MSVA4     Spavinaw Creek near Maysville, A
STATION TYPE:  

               PRECIP     STAGE  RIV-FLOW  BAT-LOAD
                   in        ft       cfs      volt
              Ccp-Rev   Ccp-Rev   Ccp-Rev   Ccp-Rev
(US/Central)
05/23 00:00      0.00      8.72       259     12.41
05/23 01:00      0.00      8.70       250     12.41
05/23 02:00      0.00      8.67       236     12.41
05/23 03:00      0.00      8.64       223     12.41
05/23 04:00      0.00      8.62       216     12.41
05/23 05:00      0.00      8.59       206     12.41
05/23 06:00      0.00      8.57       199     12.41
05/23 07:00      0.00      8.55       192     12.41
05/23 08:00      0.00      8.52       182     12.49
05/23 09:00      0.00      8.51       178     12.65
05/23 10:00      0.00      8.49       172     12.97
05/23 11:00      0.00      8.47       166     13.29
05/23 12:00      0.00      8.45       160     13.29
05/23 13:00      0.00      8.43       153     13.29
05/23 14:00      0.00      8.40       144     13.29
05/23 15:00      0.00      8.39       141     13.29
05/23 16:00      0.00      8.37       136     13.29
05/23 17:00      0.00      8.36       133     13.05
05/23 18:00      0.00      8.33       126     12.81
05/23 19:00      0.00      8.32       123     12.81
05/23 20:00      0.00      8.31       121     12.65
05/23 21:00      0.00      8.29       116     12.49
05/23 22:00      0.00      8.27       111     12.49
05/23 23:00      0.00      8.26       109     12.49